Terminal Aerodrome Forecast
Issued by NWS

Home | Current Version | Previous Version | Text Only | Print | Product List | Glossary On
Versions: 1 2 3 4 5 6 7 8 9 10 11 12 13 14 15 16 17 18 19 20 21 22 23 24 25 26
000
FTUS45 KCYS 131602 AAA
TAFAIA
TAF AMD
KAIA 131602Z 1316/1412 29010KT P6SM OVC070
     FM131900 33015G25KT P6SM BKN050
     FM140400 31007KT P6SM VCSH BKN025 BKN040
     FM140800 34002KT 6SM -SHSN BR OVC020=

USA.gov is the U.S. government's official web portal to all federal, state and local government web resources and services.